createdAt,value
2018-05-12T00:02:16.836Z,101173
2018-05-12T00:05:31.526Z,101169
2018-05-12T00:08:41.741Z,101157
2018-05-12T00:11:51.820Z,101159
2018-05-12T00:15:03.008Z,101156
2018-05-12T00:18:13.840Z,101153
2018-05-12T00:21:23.137Z,101157
2018-05-12T00:24:32.681Z,101151
2018-05-12T00:27:42.657Z,101148
2018-05-12T00:30:52.012Z,101145
2018-05-12T00:34:02.383Z,101145
2018-05-12T00:37:14.545Z,101141
2018-05-12T00:40:24.855Z,101138
2018-05-12T00:43:34.428Z,101135
2018-05-12T00:46:44.043Z,101133
2018-05-12T00:49:53.600Z,101132
2018-05-12T00:53:03.941Z,101132
2018-05-12T00:56:15.500Z,101128
2018-05-12T00:59:25.644Z,101126
2018-05-12T01:02:36.743Z,101128
2018-05-12T01:05:46.148Z,101126
2018-05-12T01:08:55.688Z,101126
2018-05-12T01:12:05.255Z,101123
2018-05-12T01:15:16.636Z,101119
2018-05-12T01:18:26.061Z,101115
2018-05-12T01:21:35.612Z,101115
2018-05-12T01:24:45.552Z,101115
2018-05-12T01:27:55.796Z,101113
2018-05-12T01:31:05.832Z,101116
2018-05-12T01:34:17.794Z,101114
2018-05-12T01:37:28.213Z,101112
2018-05-12T01:40:37.790Z,101111
2018-05-12T01:43:47.244Z,101103
2018-05-12T01:46:57.499Z,101109
2018-05-12T01:50:07.816Z,101109
2018-05-12T01:53:18.609Z,101108
2018-05-12T01:56:28.842Z,101108
2018-05-12T01:59:38.156Z,101113
2018-05-12T02:02:47.671Z,101112
2018-05-12T02:05:58.180Z,101115
2018-05-12T02:09:08.552Z,101115
2018-05-12T02:12:19.787Z,101110
2018-05-12T02:15:29.268Z,101113
2018-05-12T02:18:38.859Z,101117
2018-05-12T02:21:52.773Z,101117
2018-05-12T02:25:02.173Z,101120
2018-05-12T02:28:11.893Z,101113
2018-05-12T02:31:22.249Z,101114
2018-05-12T02:34:31.808Z,101112
2018-05-12T02:37:41.312Z,101117
2018-05-12T02:40:51.254Z,101112
2018-05-12T02:44:00.738Z,101111
2018-05-12T02:47:14.908Z,101110
2018-05-12T02:50:24.284Z,101102
2018-05-12T02:53:34.085Z,101104
2018-05-12T02:56:43.508Z,101103
2018-05-12T02:59:52.863Z,101098
2018-05-12T03:03:02.219Z,101105
2018-05-12T03:06:11.738Z,101100
2018-05-12T03:09:22.752Z,101099
2018-05-12T03:12:32.960Z,101107
2018-05-12T03:15:42.525Z,101103
2018-05-12T03:18:52.990Z,101103
2018-05-12T03:22:03.122Z,101103
2018-05-12T03:25:12.732Z,101106
2018-05-12T03:28:24.159Z,101100
2018-05-12T03:31:34.084Z,101102
2018-05-12T03:34:44.806Z,101099
2018-05-12T03:37:54.211Z,101101
2018-05-12T03:41:04.108Z,101099
2018-05-12T03:44:13.584Z,101102
2018-05-12T03:47:24.484Z,101099
2018-05-12T03:50:34.354Z,101109
2018-05-12T03:53:43.748Z,101111
2018-05-12T03:56:53.144Z,101118
2018-05-12T04:00:07.352Z,101115
2018-05-12T04:03:16.741Z,101119
2018-05-12T04:06:44.432Z,101122
2018-05-12T04:10:08.613Z,101110
2018-05-12T04:13:18.932Z,101125
2018-05-12T04:16:29.319Z,101131
2018-05-12T04:19:38.737Z,101125
2018-05-12T04:22:48.351Z,101119
2018-05-12T04:25:57.864Z,101123
2018-05-12T04:29:07.314Z,101129
2018-05-12T04:32:17.190Z,101125
2018-05-12T04:35:27.723Z,101128
2018-05-12T04:38:37.424Z,101126
2018-05-12T04:41:47.215Z,101121
2018-05-12T04:44:57.051Z,101121
2018-05-12T04:48:06.589Z,101116
2018-05-12T04:51:16.518Z,101119
2018-05-12T04:54:27.196Z,101111
2018-05-12T04:57:37.236Z,101116
2018-05-12T05:00:47.117Z,101121
2018-05-12T05:03:57.131Z,101115
2018-05-12T05:07:07.540Z,101121
2018-05-12T05:10:17.800Z,101117
2018-05-12T05:13:28.137Z,101121
2018-05-12T05:16:39.016Z,101122
2018-05-12T05:19:48.451Z,101121
2018-05-12T05:22:58.590Z,101122
2018-05-12T05:26:08.604Z,101117
2018-05-12T05:29:18.205Z,101119
2018-05-12T05:32:29.565Z,101119
2018-05-12T05:35:39.162Z,101118
2018-05-12T05:38:49.372Z,101117
2018-05-12T05:41:59.300Z,101119
2018-05-12T05:45:08.895Z,101115
2018-05-12T05:48:18.684Z,101121
2018-05-12T05:51:29.564Z,101122
2018-05-12T05:54:39.025Z,101120
2018-05-12T05:57:48.468Z,101103
2018-05-12T06:00:57.832Z,101115
2018-05-12T06:04:07.249Z,101116
2018-05-12T06:07:16.810Z,101117
2018-05-12T06:10:26.273Z,101115
2018-05-12T06:13:35.685Z,101108
2018-05-12T06:16:45.019Z,101109
2018-05-12T06:19:54.629Z,101103
2018-05-12T06:23:05.270Z,101103
2018-05-12T06:26:14.751Z,101103
2018-05-12T06:29:24.749Z,101107
2018-05-12T06:32:34.681Z,101108
2018-05-12T06:35:44.572Z,101108
2018-05-12T06:38:54.937Z,101106
2018-05-12T06:42:04.464Z,101108
2018-05-12T06:45:14.073Z,101107
2018-05-12T06:48:23.779Z,101106
2018-05-12T06:51:34.035Z,101109
2018-05-12T06:54:48.668Z,101106
2018-05-12T06:57:58.100Z,101110
2018-05-12T07:01:07.446Z,101103
2018-05-12T07:04:16.979Z,101103
2018-05-12T07:07:27.264Z,101101
2018-05-12T07:10:36.680Z,101096
2018-05-12T07:13:47.083Z,101096
2018-05-12T07:16:56.593Z,101096
2018-05-12T07:20:06.080Z,101094
2018-05-12T07:23:15.976Z,101093
2018-05-12T07:26:25.859Z,101095
2018-05-12T07:29:36.117Z,101097
2018-05-12T07:32:45.751Z,101095
2018-05-12T07:35:55.691Z,101095
2018-05-12T07:39:06.071Z,101094
2018-05-12T07:42:15.619Z,101092
2018-05-12T07:45:25.271Z,101090
2018-05-12T07:48:36.263Z,101078
2018-05-12T07:51:46.176Z,101087
2018-05-12T07:54:55.669Z,101089
2018-05-12T07:58:05.162Z,101085
2018-05-12T08:01:14.608Z,101086
2018-05-12T08:04:24.471Z,101086
2018-05-12T08:07:34.172Z,101076
2018-05-12T08:10:43.604Z,101075
2018-05-12T08:13:53.541Z,101070
2018-05-12T08:17:04.006Z,101064
2018-05-12T08:20:13.532Z,101070
2018-05-12T08:23:23.800Z,101058
2018-05-12T08:26:34.218Z,101062
2018-05-12T08:29:44.017Z,101056
2018-05-12T08:32:54.229Z,101052
2018-05-12T08:36:03.564Z,101042
2018-05-12T08:39:13.074Z,101039
2018-05-12T08:42:23.356Z,101035
2018-05-12T08:45:34.468Z,101034
2018-05-12T08:48:43.840Z,101037
2018-05-12T08:51:54.092Z,101027
2018-05-12T08:55:03.545Z,101023
2018-05-12T08:58:13.147Z,101018
2018-05-12T09:01:22.690Z,101026
2018-05-12T09:04:32.272Z,101024
2018-05-12T09:07:42.089Z,101018
2018-05-12T09:10:51.499Z,101013
2018-05-12T09:14:01.799Z,101012
2018-05-12T09:17:11.967Z,101016
2018-05-12T09:20:21.669Z,101006
2018-05-12T09:23:31.115Z,101003
2018-05-12T09:26:41.731Z,100996
2018-05-12T09:29:51.961Z,100995
2018-05-12T09:33:01.568Z,100990
2018-05-12T09:36:11.133Z,100989
2018-05-12T09:39:20.933Z,100986
2018-05-12T09:42:30.273Z,100988
2018-05-12T09:45:42.391Z,100979
2018-05-12T09:48:52.225Z,100978
2018-05-12T09:52:02.435Z,100973
2018-05-12T09:55:11.901Z,100969
2018-05-12T09:58:21.387Z,100955
2018-05-12T10:01:31.380Z,100957
2018-05-12T10:04:42.970Z,100950
2018-05-12T10:07:52.366Z,100944
2018-05-12T10:11:01.741Z,100937
2018-05-12T10:14:11.266Z,100940
2018-05-12T10:17:20.809Z,100934
2018-05-12T10:20:31.013Z,100936
2018-05-12T10:23:40.453Z,100931
2018-05-12T10:26:49.909Z,100933
2018-05-12T10:29:59.395Z,100935
2018-05-12T10:33:09.900Z,100932
2018-05-12T10:36:19.364Z,100929
2018-05-12T10:39:29.664Z,100924
2018-05-12T10:42:39.123Z,100921
2018-05-12T10:45:48.603Z,100916
2018-05-12T10:48:58.529Z,100938
2018-05-12T10:52:07.956Z,100924
2018-05-12T10:55:17.539Z,100920
2018-05-12T10:58:27.041Z,100909
2018-05-12T11:01:37.322Z,100900
2018-05-12T11:04:47.036Z,100903
2018-05-12T11:08:01.035Z,100893
2018-05-12T11:11:10.484Z,100897
2018-05-12T11:14:20.789Z,100893
2018-05-12T11:17:30.423Z,100888
2018-05-12T11:20:39.937Z,100895
2018-05-12T11:23:49.304Z,100884
2018-05-12T11:26:58.871Z,100884
2018-05-12T11:30:08.370Z,100881
2018-05-12T11:33:17.797Z,100882
2018-05-12T11:36:28.581Z,100872
2018-05-12T11:39:38.101Z,100870
2018-05-12T11:42:47.547Z,100860
2018-05-12T11:45:57.780Z,100854
2018-05-12T11:49:07.251Z,100847
2018-05-12T11:52:16.851Z,100855
2018-05-12T11:55:26.305Z,100851
2018-05-12T11:58:36.427Z,100844
2018-05-12T12:01:45.883Z,100848
2018-05-12T12:04:55.320Z,100846
2018-05-12T12:08:04.835Z,100841
2018-05-12T12:11:15.159Z,100845
2018-05-12T12:14:25.171Z,100837
2018-05-12T12:17:34.557Z,100831
2018-05-12T12:20:43.988Z,100834
2018-05-12T12:23:53.451Z,100829
2018-05-12T12:27:03.371Z,100824
2018-05-12T12:30:12.942Z,100826
2018-05-12T12:33:22.439Z,100838
2018-05-12T12:36:32.112Z,100843
2018-05-12T12:39:41.447Z,100830
2018-05-12T12:42:51.766Z,100832
2018-05-12T12:46:01.133Z,100831
2018-05-12T12:49:10.638Z,100826
2018-05-12T12:52:20.242Z,100826
2018-05-12T12:55:29.952Z,100822
2018-05-12T12:58:39.254Z,100810
2018-05-12T13:01:50.745Z,100815
2018-05-12T13:05:00.932Z,100807
2018-05-12T13:08:10.312Z,100807
2018-05-12T13:11:19.957Z,100801
2018-05-12T13:14:29.277Z,100794
2018-05-12T13:17:38.957Z,100792
2018-05-12T13:20:48.541Z,100786
2018-05-12T13:23:57.973Z,100778
2018-05-12T13:27:07.444Z,100785
2018-05-12T13:30:16.901Z,100781
2018-05-12T13:33:26.519Z,100772
2018-05-12T13:36:36.393Z,100771
2018-05-12T13:39:45.933Z,100761
2018-05-12T13:42:55.463Z,100766
2018-05-12T13:46:04.930Z,100757
2018-05-12T13:49:14.864Z,100760
2018-05-12T13:52:24.444Z,100755
2018-05-12T13:55:34.712Z,100751
2018-05-12T13:58:44.282Z,100749
2018-05-12T14:01:55.472Z,100751
2018-05-12T14:05:09.320Z,100746
2018-05-12T14:08:18.665Z,100747
2018-05-12T14:11:31.928Z,100746
2018-05-12T14:14:41.589Z,100742
2018-05-12T14:17:51.368Z,100742
2018-05-12T14:21:01.404Z,100725
2018-05-12T14:24:11.780Z,100746
2018-05-12T14:27:21.608Z,100741
2018-05-12T14:30:32.442Z,100741
2018-05-12T14:33:41.782Z,100732
2018-05-12T14:36:51.250Z,100721
2018-05-12T14:40:01.664Z,100717
2018-05-12T14:43:11.112Z,100731
2018-05-12T14:46:20.589Z,100726
2018-05-12T14:49:30.037Z,100729
2018-05-12T14:52:40.308Z,100734
2018-05-12T14:55:54.635Z,100731
2018-05-12T14:59:09.005Z,100716
2018-05-12T15:02:18.426Z,100722
2018-05-12T15:05:27.740Z,100722
2018-05-12T15:08:37.324Z,100719
2018-05-12T15:11:47.340Z,100715
2018-05-12T15:14:57.927Z,100707
2018-05-12T15:18:07.300Z,100709
2018-05-12T15:21:16.945Z,100710
2018-05-12T15:24:27.701Z,100705
2018-05-12T15:27:36.976Z,100705
2018-05-12T15:30:46.885Z,100708
2018-05-12T15:33:57.457Z,100706
2018-05-12T15:37:07.837Z,100702
2018-05-12T15:40:17.176Z,100700
2018-05-12T15:43:27.320Z,100698
2018-05-12T15:46:37.543Z,100686
2018-05-12T15:49:46.913Z,100681
2018-05-12T15:52:56.423Z,100679
2018-05-12T15:56:05.950Z,100676
2018-05-12T15:59:15.867Z,100672
2018-05-12T16:02:25.562Z,100669
2018-05-12T16:05:35.017Z,100667
2018-05-12T16:08:45.016Z,100664
2018-05-12T16:11:54.580Z,100664
2018-05-12T16:15:04.290Z,100656
2018-05-12T16:18:13.838Z,100648
2018-05-12T16:21:24.148Z,100656
2018-05-12T16:24:33.524Z,100645
2018-05-12T16:27:43.644Z,100642
2018-05-12T16:30:53.143Z,100648
2018-05-12T16:34:03.414Z,100641
2018-05-12T16:37:12.852Z,100642
2018-05-12T16:40:23.173Z,100649
2018-05-12T16:43:32.740Z,100645
2018-05-12T16:46:42.193Z,100642
2018-05-12T16:49:51.671Z,100640
2018-05-12T16:53:03.120Z,100646
2018-05-12T16:56:12.661Z,100647
2018-05-12T16:59:22.159Z,100653
2018-05-12T17:02:31.594Z,100653
2018-05-12T17:05:41.042Z,100650
2018-05-12T17:08:51.217Z,100649
2018-05-12T17:12:00.533Z,100646
2018-05-12T17:15:10.115Z,100647
2018-05-12T17:18:19.377Z,100643
2018-05-12T17:21:29.534Z,100643
2018-05-12T17:24:38.787Z,100640
2018-05-12T17:27:48.253Z,100638
2018-05-12T17:30:57.738Z,100636
2018-05-12T17:34:07.252Z,100642
2018-05-12T17:37:16.701Z,100638
2018-05-12T17:40:26.200Z,100634
2018-05-12T17:43:36.267Z,100634
2018-05-12T17:46:50.165Z,100635
2018-05-12T17:50:00.142Z,100631
2018-05-12T17:53:09.571Z,100636
2018-05-12T17:56:19.469Z,100635
2018-05-12T17:59:29.180Z,100637
2018-05-12T18:02:38.706Z,100638
2018-05-12T18:05:48.940Z,100643
2018-05-12T18:08:58.808Z,100642
2018-05-12T18:12:08.793Z,100640
2018-05-12T18:15:18.309Z,100640
2018-05-12T18:18:28.115Z,100640
2018-05-12T18:21:37.762Z,100643
2018-05-12T18:24:47.505Z,100645
2018-05-12T18:27:56.940Z,100640
2018-05-12T18:31:08.309Z,100641
2018-05-12T18:34:18.389Z,100640
2018-05-12T18:37:28.253Z,100643
2018-05-12T18:40:37.583Z,100639
2018-05-12T18:43:47.827Z,100644
2018-05-12T18:46:57.712Z,100643
2018-05-12T18:50:08.920Z,100646
2018-05-12T18:53:19.156Z,100646
2018-05-12T18:56:29.069Z,100647
2018-05-12T18:59:38.572Z,100651
2018-05-12T19:02:48.693Z,100651
2018-05-12T19:05:58.825Z,100652
2018-05-12T19:09:10.142Z,100657
2018-05-12T19:12:20.412Z,100655
2018-05-12T19:15:31.456Z,100661
2018-05-12T19:18:40.742Z,100660
2018-05-12T19:21:50.613Z,100658
2018-05-12T19:25:01.014Z,100659
2018-05-12T19:28:11.422Z,100663
2018-05-12T19:31:21.735Z,100668
2018-05-12T19:34:31.754Z,100672
2018-05-12T19:37:42.129Z,100668
2018-05-12T19:40:51.948Z,100671
2018-05-12T19:44:01.429Z,100667
2018-05-12T19:47:12.415Z,100668
2018-05-12T19:50:26.940Z,100669
2018-05-12T19:53:37.009Z,100671
2018-05-12T19:56:46.297Z,100674
2018-05-12T19:59:56.360Z,100671
2018-05-12T20:03:05.836Z,100663
2018-05-12T20:06:16.079Z,100665
2018-05-12T20:09:26.433Z,100668
2018-05-12T20:12:36.531Z,100661
2018-05-12T20:15:46.547Z,100663
2018-05-12T20:18:57.212Z,100663
2018-05-12T20:22:06.878Z,100657
2018-05-12T20:25:16.749Z,100658
2018-05-12T20:28:27.003Z,100658
2018-05-12T20:31:36.604Z,100659
2018-05-12T20:34:46.116Z,100657
2018-05-12T20:37:55.804Z,100661
2018-05-12T20:41:05.653Z,100660
2018-05-12T20:44:16.005Z,100665
2018-05-12T20:47:25.737Z,100668
2018-05-12T20:50:35.729Z,100666
2018-05-12T20:53:45.901Z,100669
2018-05-12T20:56:56.301Z,100666
2018-05-12T21:00:06.791Z,100671
2018-05-12T21:03:16.976Z,100672
2018-05-12T21:06:26.510Z,100668
2018-05-12T21:09:36.678Z,100666
2018-05-12T21:12:46.591Z,100666
2018-05-12T21:15:56.216Z,100666
2018-05-12T21:19:05.728Z,100665
2018-05-12T21:22:17.033Z,100663
2018-05-12T21:25:26.866Z,100663
2018-05-12T21:28:36.796Z,100662
2018-05-12T21:31:46.253Z,100662
2018-05-12T21:34:55.877Z,100666
2018-05-12T21:38:05.838Z,100669
2018-05-12T21:41:17.925Z,100665
2018-05-12T21:44:27.774Z,100673
2018-05-12T21:47:38.050Z,100668
2018-05-12T21:50:48.248Z,100667
2018-05-12T21:53:59.055Z,100670
2018-05-12T21:57:09.438Z,100669
2018-05-12T22:00:19.459Z,100666
2018-05-12T22:03:29.008Z,100666
2018-05-12T22:06:38.940Z,100658
2018-05-12T22:09:49.285Z,100649
2018-05-12T22:12:59.600Z,100645
2018-05-12T22:16:09.803Z,100644
2018-05-12T22:19:20.292Z,100645
2018-05-12T22:22:29.961Z,100639
2018-05-12T22:25:40.340Z,100644
2018-05-12T22:28:50.172Z,100646
2018-05-12T22:32:00.477Z,100647
2018-05-12T22:35:11.794Z,100648
2018-05-12T22:38:22.537Z,100648
2018-05-12T22:41:32.438Z,100645
2018-05-12T22:44:42.385Z,100639
2018-05-12T22:47:52.584Z,100639
2018-05-12T22:51:02.834Z,100642
2018-05-12T22:54:12.798Z,100636
2018-05-12T22:57:24.125Z,100634
2018-05-12T23:00:33.888Z,100634
2018-05-12T23:03:44.185Z,100634
2018-05-12T23:06:53.609Z,100629
2018-05-12T23:10:03.912Z,100631
2018-05-12T23:13:14.369Z,100627
2018-05-12T23:16:24.552Z,100623
2018-05-12T23:19:34.355Z,100616
2018-05-12T23:22:48.444Z,100615
2018-05-12T23:25:57.884Z,100616
2018-05-12T23:29:07.459Z,100617
2018-05-12T23:32:17.295Z,100607
2018-05-12T23:35:26.952Z,100607
2018-05-12T23:38:37.132Z,100603
2018-05-12T23:41:46.548Z,100597
2018-05-12T23:44:56.006Z,100599
2018-05-12T23:48:06.116Z,100599
2018-05-12T23:51:15.945Z,100593
2018-05-12T23:54:26.037Z,100588
2018-05-12T23:57:37.165Z,100593
